createdAt,value
2023-03-06T00:01:19.844Z,1.60
2023-03-06T00:04:08.380Z,1.60
2023-03-06T00:06:55.803Z,1.43
2023-03-06T00:09:43.139Z,1.67
2023-03-06T00:12:30.525Z,1.67
2023-03-06T00:15:17.895Z,1.83
2023-03-06T00:18:06.106Z,1.80
2023-03-06T00:20:53.504Z,2.00
2023-03-06T00:23:41.319Z,2.13
2023-03-06T00:26:28.778Z,1.50
2023-03-06T00:29:16.258Z,1.97
2023-03-06T00:32:03.635Z,1.90
2023-03-06T00:34:51.518Z,2.00
2023-03-06T00:37:38.944Z,2.10
2023-03-06T00:40:26.659Z,1.87
2023-03-06T00:43:14.308Z,1.73
2023-03-06T00:46:02.221Z,2.13
2023-03-06T00:48:49.593Z,1.63
2023-03-06T00:51:37.010Z,2.10
2023-03-06T00:54:24.345Z,2.13
2023-03-06T00:57:11.716Z,1.67
2023-03-06T00:59:59.088Z,2.33
2023-03-06T01:02:46.489Z,2.13
2023-03-06T01:05:36.037Z,1.90
2023-03-06T01:08:23.403Z,1.80
2023-03-06T01:11:10.762Z,1.87
2023-03-06T01:13:58.314Z,2.00
2023-03-06T01:16:46.193Z,1.93
2023-03-06T01:19:33.703Z,2.07
2023-03-06T01:22:21.051Z,1.90
2023-03-06T01:25:08.612Z,2.00
2023-03-06T01:27:56.089Z,2.00
2023-03-06T01:30:43.459Z,2.40
2023-03-06T01:33:31.347Z,2.60
2023-03-06T01:36:18.706Z,2.57
2023-03-06T01:39:06.080Z,2.57
2023-03-06T01:41:53.427Z,2.60
2023-03-06T01:44:59.505Z,2.60
2023-03-06T01:47:46.876Z,2.43
2023-03-06T01:50:34.254Z,2.70
2023-03-06T01:53:21.721Z,3.23
2023-03-06T01:56:09.147Z,3.27
2023-03-06T01:58:57.468Z,2.97
2023-03-06T02:01:45.370Z,3.33
2023-03-06T02:04:33.809Z,2.93
2023-03-06T02:07:21.664Z,3.20
2023-03-06T02:10:09.365Z,3.63
2023-03-06T02:12:56.866Z,3.50
2023-03-06T02:15:44.236Z,4.00
2023-03-06T02:18:31.688Z,4.57
2023-03-06T02:21:21.327Z,4.20
2023-03-06T02:24:17.649Z,4.53
2023-03-06T02:27:05.665Z,5.20
2023-03-06T02:29:53.140Z,4.70
2023-03-06T02:32:40.554Z,5.07
2023-03-06T02:35:30.092Z,5.30
2023-03-06T02:38:19.092Z,5.03
2023-03-06T02:41:08.157Z,4.93
2023-03-06T02:43:55.505Z,5.60
2023-03-06T02:46:42.883Z,5.70
2023-03-06T02:49:30.273Z,5.30
2023-03-06T02:52:17.623Z,5.20
2023-03-06T02:55:05.245Z,7.88
2023-03-06T02:57:52.720Z,6.80
2023-03-06T03:00:40.644Z,7.20
2023-03-06T03:03:27.996Z,7.03
2023-03-06T03:06:15.385Z,6.63
2023-03-06T03:09:02.718Z,6.03
2023-03-06T03:11:50.118Z,6.50
2023-03-06T03:14:37.567Z,6.60
2023-03-06T03:17:25.213Z,6.30
2023-03-06T03:20:13.918Z,6.30
2023-03-06T03:23:01.798Z,6.60
2023-03-06T03:25:49.250Z,6.07
2023-03-06T03:28:37.070Z,7.10
2023-03-06T03:31:24.468Z,6.73
2023-03-06T03:34:11.987Z,7.57
2023-03-06T03:36:59.363Z,7.97
2023-03-06T03:39:46.735Z,7.03
2023-03-06T03:42:35.069Z,8.30
2023-03-06T03:45:22.459Z,8.33
2023-03-06T03:48:09.888Z,9.17
2023-03-06T03:51:04.645Z,8.83
2023-03-06T03:53:52.093Z,8.90
2023-03-06T03:56:40.619Z,8.97
2023-03-06T03:59:28.033Z,8.67
2023-03-06T04:02:15.493Z,9.80
2023-03-06T04:05:04.926Z,10.33
2023-03-06T04:07:52.314Z,9.57
2023-03-06T04:10:39.681Z,10.23
2023-03-06T04:13:27.293Z,9.43
2023-03-06T04:16:14.911Z,10.13
2023-03-06T04:19:02.317Z,9.53
2023-03-06T04:21:49.691Z,9.40
2023-03-06T04:24:37.067Z,9.30
2023-03-06T04:27:24.394Z,10.23
2023-03-06T04:30:12.082Z,9.77
2023-03-06T04:32:59.715Z,10.13
2023-03-06T04:35:47.151Z,9.17
2023-03-06T04:38:34.590Z,10.13
2023-03-06T04:41:21.980Z,10.07
2023-03-06T04:44:09.788Z,9.93
2023-03-06T04:46:57.126Z,10.27
2023-03-06T04:49:44.595Z,9.37
2023-03-06T04:52:32.020Z,8.93
2023-03-06T04:55:19.572Z,8.67
2023-03-06T04:58:06.944Z,9.20
2023-03-06T05:00:54.344Z,9.93
2023-03-06T05:03:41.774Z,8.93
2023-03-06T05:06:29.141Z,9.70
2023-03-06T05:09:16.738Z,10.03
2023-03-06T05:12:04.221Z,9.03
2023-03-06T05:14:51.569Z,10.03
2023-03-06T05:17:39.407Z,8.60
2023-03-06T05:20:28.358Z,9.63
2023-03-06T05:23:15.760Z,9.23
2023-03-06T05:26:06.006Z,9.53
2023-03-06T05:28:55.240Z,10.63
2023-03-06T05:31:43.199Z,9.13
2023-03-06T05:34:31.043Z,8.77
2023-03-06T05:37:18.470Z,7.67
2023-03-06T05:40:09.405Z,7.60
2023-03-06T05:42:57.848Z,9.00
2023-03-06T05:45:45.328Z,8.83
2023-03-06T05:48:33.391Z,8.97
2023-03-06T05:51:20.885Z,8.57
2023-03-06T05:54:08.337Z,9.60
2023-03-06T05:56:57.326Z,9.27
2023-03-06T05:59:46.318Z,9.43
2023-03-06T06:02:33.886Z,8.33
2023-03-06T06:05:21.412Z,9.83
2023-03-06T06:08:08.785Z,8.97
2023-03-06T06:10:56.151Z,9.27
2023-03-06T06:13:43.755Z,9.73
2023-03-06T06:16:31.197Z,9.10
2023-03-06T06:19:20.007Z,8.80
2023-03-06T06:22:07.415Z,9.20
2023-03-06T06:24:54.823Z,8.30
2023-03-06T06:27:42.365Z,8.87
2023-03-06T06:30:29.971Z,8.47
2023-03-06T06:33:17.324Z,8.47
2023-03-06T06:36:04.832Z,9.07
2023-03-06T06:38:52.926Z,8.40
2023-03-06T06:41:56.951Z,8.60
2023-03-06T06:44:47.695Z,8.00
2023-03-06T06:47:36.917Z,8.60
2023-03-06T06:50:24.277Z,8.23
2023-03-06T06:53:11.654Z,8.60
2023-03-06T06:55:59.542Z,7.30
2023-03-06T06:58:46.894Z,7.33
2023-03-06T07:01:34.318Z,7.33
2023-03-06T07:04:21.736Z,7.60
2023-03-06T07:07:09.146Z,6.77
2023-03-06T07:09:56.854Z,6.10
2023-03-06T07:12:44.233Z,6.10
2023-03-06T07:15:31.613Z,6.17
2023-03-06T07:18:18.961Z,6.50
2023-03-06T07:21:07.214Z,5.83
2023-03-06T07:23:57.665Z,5.37
2023-03-06T07:26:48.650Z,5.53
2023-03-06T07:29:36.119Z,5.70
2023-03-06T07:32:24.520Z,5.67
2023-03-06T07:35:20.156Z,5.20
2023-03-06T07:38:08.234Z,5.67
2023-03-06T07:40:55.562Z,5.03
2023-03-06T07:43:43.805Z,5.20
2023-03-06T07:46:31.227Z,5.00
2023-03-06T07:49:19.001Z,5.53
2023-03-06T07:52:06.465Z,4.73
2023-03-06T07:54:53.896Z,5.17
2023-03-06T07:57:41.712Z,5.30
2023-03-06T08:00:29.076Z,5.63
2023-03-06T08:03:17.019Z,5.80
2023-03-06T08:06:11.579Z,5.83
2023-03-06T08:08:59.387Z,5.60
2023-03-06T08:11:47.071Z,5.27
2023-03-06T08:14:35.250Z,5.70
2023-03-06T08:17:22.760Z,5.23
2023-03-06T08:20:10.515Z,4.87
2023-03-06T08:22:57.884Z,4.83
2023-03-06T08:25:45.253Z,5.17
2023-03-06T08:28:32.777Z,5.00
2023-03-06T08:31:31.326Z,5.83
2023-03-06T08:34:20.118Z,5.63
2023-03-06T08:37:07.474Z,5.60
2023-03-06T08:39:54.863Z,4.70
2023-03-06T08:42:42.498Z,5.17
2023-03-06T08:45:29.871Z,5.07
2023-03-06T08:48:17.266Z,5.50
2023-03-06T08:51:04.671Z,4.93
2023-03-06T08:53:52.746Z,4.70
2023-03-06T08:56:40.157Z,5.07
2023-03-06T08:59:27.614Z,4.20
2023-03-06T09:02:15.292Z,4.23
2023-03-06T09:05:04.846Z,4.37
2023-03-06T09:07:52.438Z,4.03
2023-03-06T09:10:39.911Z,4.30
2023-03-06T09:13:27.358Z,4.00
2023-03-06T09:16:14.944Z,3.73
2023-03-06T09:19:02.373Z,4.10
2023-03-06T09:21:49.780Z,3.87
2023-03-06T09:24:37.204Z,3.53
2023-03-06T09:27:24.822Z,4.00
2023-03-06T09:30:12.639Z,4.40
2023-03-06T09:33:00.008Z,4.50
2023-03-06T09:35:47.406Z,4.33
2023-03-06T09:38:35.213Z,4.30
2023-03-06T09:41:27.884Z,4.57
2023-03-06T09:44:17.399Z,4.80
2023-03-06T09:47:05.697Z,4.77
2023-03-06T09:50:12.438Z,5.13
2023-03-06T09:52:59.760Z,4.53
2023-03-06T09:55:51.045Z,4.80
2023-03-06T09:58:40.702Z,5.07
2023-03-06T10:01:32.965Z,4.87
2023-03-06T10:04:36.224Z,5.20
2023-03-06T10:07:26.028Z,5.60
2023-03-06T10:10:18.982Z,4.80
2023-03-06T10:13:12.385Z,4.67
2023-03-06T10:16:04.828Z,4.20
2023-03-06T10:18:52.273Z,3.70
2023-03-06T10:21:45.598Z,4.03
2023-03-06T10:24:35.985Z,4.67
2023-03-06T10:27:32.873Z,3.60
2023-03-06T10:30:38.728Z,4.53
2023-03-06T10:33:44.974Z,4.70
2023-03-06T10:36:32.382Z,4.50
2023-03-06T10:39:20.793Z,3.97
2023-03-06T10:42:09.669Z,4.13
2023-03-06T10:45:06.998Z,3.83
2023-03-06T10:48:09.445Z,3.43
2023-03-06T10:51:18.597Z,3.50
2023-03-06T10:54:15.501Z,3.37
2023-03-06T10:57:29.430Z,3.70
2023-03-06T11:00:26.082Z,3.00
2023-03-06T11:03:18.161Z,2.90
2023-03-06T11:06:07.691Z,3.00
2023-03-06T11:08:55.163Z,3.70
2023-03-06T11:11:42.555Z,3.13
2023-03-06T11:14:29.996Z,3.37
2023-03-06T11:17:40.893Z,2.80
2023-03-06T11:20:48.896Z,2.50
2023-03-06T11:23:47.449Z,3.27
2023-03-06T11:26:41.114Z,3.40
2023-03-06T11:29:35.711Z,3.00
2023-03-06T11:32:30.279Z,3.27
2023-03-06T11:35:20.448Z,2.93
2023-03-06T11:38:13.387Z,2.80
2023-03-06T11:41:03.028Z,2.80
2023-03-06T11:43:57.773Z,3.10
2023-03-06T11:46:48.891Z,2.30
2023-03-06T11:49:45.365Z,2.97
2023-03-06T11:52:46.802Z,2.57
2023-03-06T11:55:44.147Z,3.10
2023-03-06T11:58:47.606Z,2.10
2023-03-06T12:01:50.436Z,2.50
2023-03-06T12:04:49.461Z,2.13
2023-03-06T12:07:41.044Z,1.80
2023-03-06T12:10:31.784Z,2.27
2023-03-06T12:13:32.687Z,1.77
2023-03-06T12:16:29.296Z,1.40
2023-03-06T12:19:36.924Z,1.80
2023-03-06T12:22:44.315Z,1.70
2023-03-06T12:25:38.336Z,2.07
2023-03-06T12:28:32.032Z,2.00
2023-03-06T12:31:24.825Z,1.50
2023-03-06T12:34:21.371Z,1.43
2023-03-06T12:37:14.319Z,1.40
2023-03-06T12:40:16.552Z,2.10
2023-03-06T12:43:10.762Z,2.03
2023-03-06T12:46:01.913Z,1.77
2023-03-06T12:48:57.431Z,1.90
2023-03-06T12:51:45.417Z,1.97
2023-03-06T12:54:35.756Z,1.80
2023-03-06T12:57:24.848Z,2.10
2023-03-06T13:00:32.350Z,1.80
2023-03-06T13:03:24.727Z,1.93
2023-03-06T13:06:41.987Z,1.60
2023-03-06T13:09:45.505Z,2.90
2023-03-06T13:12:38.944Z,2.30
2023-03-06T13:15:29.240Z,2.00
2023-03-06T13:18:22.842Z,2.00
2023-03-06T13:21:42.921Z,1.80
2023-03-06T13:24:34.541Z,2.10
2023-03-06T13:27:42.041Z,2.40
2023-03-06T13:30:29.465Z,2.40
2023-03-06T13:33:32.936Z,2.17
2023-03-06T13:36:24.785Z,2.23
2023-03-06T13:39:12.468Z,1.70
2023-03-06T13:42:00.436Z,1.90
2023-03-06T13:44:50.848Z,1.60
2023-03-06T13:48:25.042Z,1.60
2023-03-06T13:51:23.171Z,1.70
2023-03-06T13:54:29.343Z,1.80
2023-03-06T13:57:16.705Z,1.90
2023-03-06T14:00:14.313Z,1.70
2023-03-06T14:03:20.868Z,1.60
2023-03-06T14:06:27.241Z,1.43
2023-03-06T14:09:20.427Z,1.40
2023-03-06T14:12:10.420Z,1.47
2023-03-06T14:15:13.124Z,1.17
2023-03-06T14:18:07.164Z,1.00
2023-03-06T14:20:56.446Z,1.47
2023-03-06T14:23:45.832Z,1.60
2023-03-06T14:26:34.915Z,3.60
2023-03-06T14:29:26.425Z,1.57
2023-03-06T14:32:15.012Z,2.60
2023-03-06T14:35:02.561Z,2.03
2023-03-06T14:37:53.082Z,1.47
2023-03-06T14:40:44.506Z,1.23
2023-03-06T14:43:32.266Z,1.40
2023-03-06T14:46:23.155Z,0.90
2023-03-06T14:49:10.858Z,1.60
2023-03-06T14:52:00.587Z,1.50
2023-03-06T14:54:48.581Z,1.20
2023-03-06T14:57:35.966Z,1.33
2023-03-06T15:00:23.922Z,1.30
2023-03-06T15:03:18.818Z,1.20
2023-03-06T15:06:06.666Z,1.20
2023-03-06T15:09:07.858Z,1.20
2023-03-06T15:11:55.591Z,1.20
2023-03-06T15:14:48.541Z,1.20
2023-03-06T15:17:40.880Z,1.23
2023-03-06T15:20:38.707Z,1.13
2023-03-06T15:23:27.851Z,1.20
2023-03-06T15:26:23.718Z,1.00
2023-03-06T15:29:11.161Z,1.37
2023-03-06T15:32:15.415Z,0.87
2023-03-06T15:35:21.324Z,1.10
2023-03-06T15:38:23.652Z,0.83
2023-03-06T15:41:22.113Z,1.00
2023-03-06T15:44:11.646Z,0.93
2023-03-06T15:47:08.400Z,0.87
2023-03-06T15:49:56.908Z,1.10
2023-03-06T15:52:45.307Z,0.80
2023-03-06T15:55:33.585Z,0.87
2023-03-06T15:58:24.677Z,0.90
2023-03-06T16:01:17.279Z,1.00
2023-03-06T16:04:04.831Z,0.90
2023-03-06T16:06:52.217Z,1.10
2023-03-06T16:09:40.426Z,0.80
2023-03-06T16:12:29.121Z,0.80
2023-03-06T16:15:20.960Z,1.00
2023-03-06T16:18:10.991Z,1.00
2023-03-06T16:20:58.357Z,1.10
2023-03-06T16:23:46.131Z,0.80
2023-03-06T16:26:35.047Z,0.90
2023-03-06T16:29:23.645Z,0.67
2023-03-06T16:32:11.675Z,1.60
2023-03-06T16:34:59.276Z,0.80
2023-03-06T16:37:46.844Z,0.63
2023-03-06T16:40:38.059Z,0.80
2023-03-06T16:43:25.454Z,0.93
2023-03-06T16:46:15.970Z,1.10
2023-03-06T16:49:04.029Z,0.97
2023-03-06T16:51:51.974Z,0.90
2023-03-06T16:54:39.370Z,0.87
2023-03-06T16:57:31.422Z,1.47
2023-03-06T17:00:19.652Z,0.90
2023-03-06T17:03:07.381Z,1.23
2023-03-06T17:05:54.798Z,1.20
2023-03-06T17:08:42.328Z,1.20
2023-03-06T17:11:29.756Z,1.10
2023-03-06T17:14:17.146Z,1.80
2023-03-06T17:17:04.620Z,1.33
2023-03-06T17:19:52.132Z,1.40
2023-03-06T17:22:40.480Z,1.37
2023-03-06T17:25:27.950Z,1.37
2023-03-06T17:28:15.364Z,1.80
2023-03-06T17:31:03.344Z,1.80
2023-03-06T17:33:56.993Z,2.33
2023-03-06T17:36:44.471Z,1.90
2023-03-06T17:39:32.900Z,2.20
2023-03-06T17:42:20.335Z,2.10
2023-03-06T17:45:09.482Z,1.97
2023-03-06T17:47:56.833Z,2.70
2023-03-06T17:50:45.739Z,2.50
2023-03-06T17:53:33.147Z,2.63
2023-03-06T17:56:20.520Z,2.50
2023-03-06T17:59:08.149Z,2.80
2023-03-06T18:01:59.287Z,2.70
2023-03-06T18:04:46.767Z,2.60
2023-03-06T18:07:34.201Z,2.70
2023-03-06T18:10:21.578Z,2.63
2023-03-06T18:13:09.170Z,2.80
2023-03-06T18:15:56.538Z,2.70
2023-03-06T18:18:44.274Z,2.73
2023-03-06T18:21:31.671Z,3.40
2023-03-06T18:24:19.042Z,8.27
2023-03-06T18:27:06.501Z,16.37
2023-03-06T18:29:55.482Z,7.67
2023-03-06T18:32:42.863Z,3.70
2023-03-06T18:35:30.306Z,3.33
2023-03-06T18:38:17.689Z,3.57
2023-03-06T18:41:07.129Z,3.37
2023-03-06T18:43:55.302Z,3.00
2023-03-06T18:46:42.828Z,3.33
2023-03-06T18:49:30.188Z,3.60
2023-03-06T18:52:17.713Z,3.70
2023-03-06T18:55:05.234Z,4.57
2023-03-06T18:57:52.601Z,4.03
2023-03-06T19:00:39.984Z,4.30
2023-03-06T19:03:27.754Z,4.57
2023-03-06T19:06:16.772Z,4.20
2023-03-06T19:09:04.536Z,3.50
2023-03-06T19:11:54.463Z,4.03
2023-03-06T19:14:42.203Z,3.47
2023-03-06T19:17:31.313Z,3.90
2023-03-06T19:20:18.716Z,7.10
2023-03-06T19:23:06.220Z,7.20
2023-03-06T19:25:59.875Z,4.60
2023-03-06T19:28:48.102Z,2.97
2023-03-06T19:31:35.741Z,3.33
2023-03-06T19:34:23.162Z,2.83
2023-03-06T19:37:10.604Z,4.90
2023-03-06T19:40:01.790Z,3.70
2023-03-06T19:42:50.179Z,3.10
2023-03-06T19:45:41.889Z,2.70
2023-03-06T19:48:29.283Z,3.50
2023-03-06T19:51:16.839Z,3.37
2023-03-06T19:54:04.319Z,3.40
2023-03-06T19:56:52.050Z,3.90
2023-03-06T19:59:39.506Z,3.67
2023-03-06T20:02:27.342Z,3.80
2023-03-06T20:05:14.756Z,4.53
2023-03-06T20:08:02.159Z,4.60
2023-03-06T20:10:49.535Z,4.13
2023-03-06T20:13:39.461Z,3.63
2023-03-06T20:16:28.877Z,4.03
2023-03-06T20:19:16.473Z,5.47
2023-03-06T20:22:03.902Z,5.20
2023-03-06T20:24:51.259Z,3.93
2023-03-06T20:27:39.145Z,3.20
2023-03-06T20:30:33.908Z,3.20
2023-03-06T20:33:26.518Z,3.00
2023-03-06T20:36:18.472Z,3.77
2023-03-06T20:39:07.408Z,4.00
2023-03-06T20:41:54.972Z,3.60
2023-03-06T20:44:42.392Z,3.87
2023-03-06T20:47:29.743Z,3.10
2023-03-06T20:50:17.176Z,3.70
2023-03-06T20:53:04.563Z,3.83
2023-03-06T20:55:52.307Z,4.13
2023-03-06T20:58:39.868Z,3.80
2023-03-06T21:01:28.812Z,5.43
2023-03-06T21:04:16.530Z,3.80
2023-03-06T21:07:03.874Z,4.80
2023-03-06T21:09:52.145Z,4.27
2023-03-06T21:12:39.942Z,4.00
2023-03-06T21:15:29.900Z,4.13
2023-03-06T21:18:17.470Z,4.53
2023-03-06T21:21:08.394Z,7.87
2023-03-06T21:23:55.958Z,4.23
2023-03-06T21:26:43.510Z,4.63
2023-03-06T21:29:30.991Z,4.07
2023-03-06T21:32:18.436Z,4.00
2023-03-06T21:35:05.990Z,4.00
2023-03-06T21:37:53.671Z,4.30
2023-03-06T21:40:41.053Z,3.80
2023-03-06T21:43:28.451Z,3.90
2023-03-06T21:46:16.085Z,4.87
2023-03-06T21:49:06.114Z,4.10
2023-03-06T21:51:53.836Z,3.93
2023-03-06T21:54:41.515Z,4.13
2023-03-06T21:57:28.971Z,4.13
2023-03-06T22:00:17.300Z,4.13
2023-03-06T22:03:05.011Z,4.87
2023-03-06T22:05:52.688Z,3.90
2023-03-06T22:08:40.685Z,3.93
2023-03-06T22:11:31.159Z,4.00
2023-03-06T22:14:18.638Z,3.77
2023-03-06T22:17:06.004Z,3.97
2023-03-06T22:19:53.347Z,3.57
2023-03-06T22:22:40.768Z,3.60
2023-03-06T22:25:28.136Z,3.73
2023-03-06T22:28:18.330Z,3.30
2023-03-06T22:31:34.987Z,3.93
2023-03-06T22:34:22.368Z,3.13
2023-03-06T22:37:09.736Z,3.57
2023-03-06T22:39:57.097Z,7.03
2023-03-06T22:42:44.448Z,6.43
2023-03-06T22:45:35.133Z,4.20
2023-03-06T22:48:23.073Z,3.70
2023-03-06T22:51:14.884Z,3.40
2023-03-06T22:54:02.248Z,3.80
2023-03-06T22:56:49.770Z,3.67
2023-03-06T22:59:37.151Z,3.47
2023-03-06T23:02:24.470Z,3.40
2023-03-06T23:05:11.805Z,3.83
2023-03-06T23:07:59.156Z,4.70
2023-03-06T23:10:46.556Z,3.80
2023-03-06T23:13:33.907Z,3.77
2023-03-06T23:16:21.452Z,3.70
2023-03-06T23:19:08.886Z,3.77
2023-03-06T23:21:56.233Z,3.50
2023-03-06T23:24:43.602Z,4.17
2023-03-06T23:27:30.959Z,4.43
2023-03-06T23:30:18.465Z,4.40
2023-03-06T23:33:05.824Z,4.83
2023-03-06T23:35:53.263Z,4.90
2023-03-06T23:38:40.931Z,4.80
2023-03-06T23:41:28.534Z,4.80
2023-03-06T23:44:15.971Z,5.90
2023-03-06T23:47:03.373Z,5.77
2023-03-06T23:49:50.739Z,6.00
2023-03-06T23:52:38.830Z,6.10
2023-03-06T23:55:26.215Z,6.63
2023-03-06T23:58:14.039Z,7.23
